sensor_id;sensor_type;location;lat;lon;timestamp;temperature;humidity
31451;DHT22;18070;52.474;13.304;2023-08-20T00:01:15;25.30;99.90
31451;DHT22;18070;52.474;13.304;2023-08-20T00:03:42;25.20;99.90
31451;DHT22;18070;52.474;13.304;2023-08-20T00:06:09;25.20;99.90
31451;DHT22;18070;52.474;13.304;2023-08-20T00:08:35;25.10;99.90
31451;DHT22;18070;52.474;13.304;2023-08-20T00:11:01;25.10;99.90
31451;DHT22;18070;52.474;13.304;2023-08-20T00:13:27;25.10;99.90
31451;DHT22;18070;52.474;13.304;2023-08-20T00:15:53;25.00;99.90
31451;DHT22;18070;52.474;13.304;2023-08-20T00:18:19;24.90;99.90
31451;DHT22;18070;52.474;13.304;2023-08-20T00:20:45;24.90;99.90
31451;DHT22;18070;52.474;13.304;2023-08-20T00:23:11;24.80;99.90
31451;DHT22;18070;52.474;13.304;2023-08-20T00:25:37;24.80;99.90
31451;DHT22;18070;52.474;13.304;2023-08-20T00:28:03;24.80;99.90
31451;DHT22;18070;52.474;13.304;2023-08-20T00:30:29;24.60;99.90
31451;DHT22;18070;52.474;13.304;2023-08-20T00:32:54;24.60;99.90
31451;DHT22;18070;52.474;13.304;2023-08-20T00:35:21;24.50;99.90
31451;DHT22;18070;52.474;13.304;2023-08-20T00:37:47;24.50;99.90
31451;DHT22;18070;52.474;13.304;2023-08-20T00:40:13;24.50;99.90
31451;DHT22;18070;52.474;13.304;2023-08-20T00:42:38;24.40;99.90
31451;DHT22;18070;52.474;13.304;2023-08-20T00:45:05;24.40;99.90
31451;DHT22;18070;52.474;13.304;2023-08-20T00:47:30;24.40;99.90
31451;DHT22;18070;52.474;13.304;2023-08-20T00:49:56;24.40;99.90
31451;DHT22;18070;52.474;13.304;2023-08-20T00:52:22;24.40;99.90
31451;DHT22;18070;52.474;13.304;2023-08-20T00:54:49;24.40;99.90
31451;DHT22;18070;52.474;13.304;2023-08-20T00:57:17;24.30;99.90
31451;DHT22;18070;52.474;13.304;2023-08-20T00:59:45;24.40;99.90
31451;DHT22;18070;52.474;13.304;2023-08-20T01:02:12;24.30;99.90
31451;DHT22;18070;52.474;13.304;2023-08-20T01:04:38;24.30;99.90
31451;DHT22;18070;52.474;13.304;2023-08-20T01:07:10;24.30;99.90
31451;DHT22;18070;52.474;13.304;2023-08-20T01:09:57;24.30;99.90
31451;DHT22;18070;52.474;13.304;2023-08-20T01:12:24;24.30;99.90
31451;DHT22;18070;52.474;13.304;2023-08-20T01:14:50;24.40;99.90
31451;DHT22;18070;52.474;13.304;2023-08-20T01:17:16;24.40;99.90
31451;DHT22;18070;52.474;13.304;2023-08-20T01:19:42;24.40;99.90
31451;DHT22;18070;52.474;13.304;2023-08-20T01:30:40;24.30;99.90
31451;DHT22;18070;52.474;13.304;2023-08-20T01:33:07;24.30;99.90
31451;DHT22;18070;52.474;13.304;2023-08-20T01:35:33;24.30;99.90
31451;DHT22;18070;52.474;13.304;2023-08-20T01:37:59;24.30;99.90
31451;DHT22;18070;52.474;13.304;2023-08-20T01:40:25;24.20;99.90
31451;DHT22;18070;52.474;13.304;2023-08-20T01:42:50;24.30;99.90
31451;DHT22;18070;52.474;13.304;2023-08-20T01:45:16;24.30;99.90
31451;DHT22;18070;52.474;13.304;2023-08-20T01:47:43;24.20;99.90
31451;DHT22;18070;52.474;13.304;2023-08-20T01:50:09;24.20;99.90
31451;DHT22;18070;52.474;13.304;2023-08-20T01:52:35;24.20;99.90
31451;DHT22;18070;52.474;13.304;2023-08-20T01:55:01;24.20;99.90
31451;DHT22;18070;52.474;13.304;2023-08-20T01:57:26;24.20;99.90
31451;DHT22;18070;52.474;13.304;2023-08-20T01:59:52;24.20;99.90
31451;DHT22;18070;52.474;13.304;2023-08-20T02:02:17;24.20;99.90
31451;DHT22;18070;52.474;13.304;2023-08-20T02:04:43;24.10;99.90
31451;DHT22;18070;52.474;13.304;2023-08-20T02:07:09;24.20;99.90
31451;DHT22;18070;52.474;13.304;2023-08-20T02:09:34;24.10;99.90
31451;DHT22;18070;52.474;13.304;2023-08-20T02:12:00;24.10;99.90
31451;DHT22;18070;52.474;13.304;2023-08-20T02:14:25;24.10;99.90
31451;DHT22;18070;52.474;13.304;2023-08-20T02:16:53;24.10;99.90
31451;DHT22;18070;52.474;13.304;2023-08-20T02:19:19;24.00;99.90
31451;DHT22;18070;52.474;13.304;2023-08-20T02:21:44;24.00;99.90
31451;DHT22;18070;52.474;13.304;2023-08-20T02:24:10;24.00;99.90
31451;DHT22;18070;52.474;13.304;2023-08-20T02:26:36;24.00;99.90
31451;DHT22;18070;52.474;13.304;2023-08-20T02:29:02;23.90;99.90
31451;DHT22;18070;52.474;13.304;2023-08-20T02:31:28;24.00;99.90
31451;DHT22;18070;52.474;13.304;2023-08-20T02:33:53;23.90;99.90
31451;DHT22;18070;52.474;13.304;2023-08-20T02:36:19;23.90;99.90
31451;DHT22;18070;52.474;13.304;2023-08-20T02:38:45;23.90;99.90
31451;DHT22;18070;52.474;13.304;2023-08-20T02:41:11;23.80;99.90
31451;DHT22;18070;52.474;13.304;2023-08-20T02:43:37;23.80;99.90
31451;DHT22;18070;52.474;13.304;2023-08-20T02:46:03;23.70;99.90
31451;DHT22;18070;52.474;13.304;2023-08-20T02:48:29;23.70;99.90
31451;DHT22;18070;52.474;13.304;2023-08-20T02:50:55;23.70;99.90
31451;DHT22;18070;52.474;13.304;2023-08-20T02:53:22;23.70;99.90
31451;DHT22;18070;52.474;13.304;2023-08-20T02:55:48;23.70;99.90
31451;DHT22;18070;52.474;13.304;2023-08-20T02:58:13;23.70;99.90
31451;DHT22;18070;52.474;13.304;2023-08-20T03:00:39;23.70;99.90
31451;DHT22;18070;52.474;13.304;2023-08-20T03:03:05;23.70;99.90
31451;DHT22;18070;52.474;13.304;2023-08-20T03:05:33;23.70;99.90
31451;DHT22;18070;52.474;13.304;2023-08-20T03:07:59;23.60;99.90
31451;DHT22;18070;52.474;13.304;2023-08-20T03:10:26;23.60;99.90
31451;DHT22;18070;52.474;13.304;2023-08-20T03:12:52;23.50;99.90
31451;DHT22;18070;52.474;13.304;2023-08-20T03:15:18;23.60;99.90
31451;DHT22;18070;52.474;13.304;2023-08-20T03:17:43;23.50;99.90
31451;DHT22;18070;52.474;13.304;2023-08-20T03:20:09;23.40;99.90
31451;DHT22;18070;52.474;13.304;2023-08-20T03:22:36;23.40;99.90
31451;DHT22;18070;52.474;13.304;2023-08-20T03:25:02;23.50;99.90
31451;DHT22;18070;52.474;13.304;2023-08-20T03:27:28;23.40;99.90
31451;DHT22;18070;52.474;13.304;2023-08-20T03:29:54;23.40;99.90
31451;DHT22;18070;52.474;13.304;2023-08-20T03:32:20;23.40;99.90
31451;DHT22;18070;52.474;13.304;2023-08-20T03:34:45;23.40;99.90
31451;DHT22;18070;52.474;13.304;2023-08-20T03:37:12;23.30;99.90
31451;DHT22;18070;52.474;13.304;2023-08-20T03:39:37;23.30;99.90
31451;DHT22;18070;52.474;13.304;2023-08-20T03:42:03;23.20;99.90
31451;DHT22;18070;52.474;13.304;2023-08-20T03:44:30;23.20;99.90
31451;DHT22;18070;52.474;13.304;2023-08-20T03:46:56;23.20;99.90
31451;DHT22;18070;52.474;13.304;2023-08-20T03:49:22;23.20;99.90
31451;DHT22;18070;52.474;13.304;2023-08-20T03:51:47;23.20;99.90
31451;DHT22;18070;52.474;13.304;2023-08-20T03:54:13;23.20;99.90
31451;DHT22;18070;52.474;13.304;2023-08-20T03:56:39;23.10;99.90
31451;DHT22;18070;52.474;13.304;2023-08-20T03:59:04;23.10;99.90
31451;DHT22;18070;52.474;13.304;2023-08-20T04:01:30;23.10;99.90
31451;DHT22;18070;52.474;13.304;2023-08-20T04:03:56;23.10;99.90
31451;DHT22;18070;52.474;13.304;2023-08-20T04:06:22;23.00;99.90
31451;DHT22;18070;52.474;13.304;2023-08-20T04:08:48;23.00;99.90
31451;DHT22;18070;52.474;13.304;2023-08-20T04:11:14;23.00;99.90
31451;DHT22;18070;52.474;13.304;2023-08-20T04:13:39;23.00;99.90
31451;DHT22;18070;52.474;13.304;2023-08-20T04:16:08;23.00;99.90
31451;DHT22;18070;52.474;13.304;2023-08-20T04:18:34;23.00;99.90
31451;DHT22;18070;52.474;13.304;2023-08-20T04:20:59;22.90;99.90
31451;DHT22;18070;52.474;13.304;2023-08-20T04:23:25;22.90;99.90
31451;DHT22;18070;52.474;13.304;2023-08-20T04:25:50;22.90;99.90
31451;DHT22;18070;52.474;13.304;2023-08-20T04:28:16;22.90;99.90
31451;DHT22;18070;52.474;13.304;2023-08-20T04:30:42;22.90;99.90
31451;DHT22;18070;52.474;13.304;2023-08-20T04:33:09;22.90;99.90
31451;DHT22;18070;52.474;13.304;2023-08-20T04:35:35;22.90;99.90
31451;DHT22;18070;52.474;13.304;2023-08-20T04:38:02;22.90;99.90
31451;DHT22;18070;52.474;13.304;2023-08-20T04:40:28;22.90;99.90
31451;DHT22;18070;52.474;13.304;2023-08-20T04:42:53;22.90;99.90
31451;DHT22;18070;52.474;13.304;2023-08-20T04:45:19;22.90;99.90
31451;DHT22;18070;52.474;13.304;2023-08-20T04:47:46;22.90;99.90
31451;DHT22;18070;52.474;13.304;2023-08-20T04:50:11;22.90;99.90
31451;DHT22;18070;52.474;13.304;2023-08-20T04:52:38;22.90;99.90
31451;DHT22;18070;52.474;13.304;2023-08-20T04:55:04;22.90;99.90
31451;DHT22;18070;52.474;13.304;2023-08-20T04:57:31;22.90;99.90
31451;DHT22;18070;52.474;13.304;2023-08-20T04:59:57;22.90;99.90
31451;DHT22;18070;52.474;13.304;2023-08-20T05:02:22;23.00;99.90
31451;DHT22;18070;52.474;13.304;2023-08-20T05:04:49;23.00;99.90
31451;DHT22;18070;52.474;13.304;2023-08-20T05:07:14;23.00;99.90
31451;DHT22;18070;52.474;13.304;2023-08-20T05:09:40;23.00;99.90
31451;DHT22;18070;52.474;13.304;2023-08-20T05:12:06;23.00;99.90
31451;DHT22;18070;52.474;13.304;2023-08-20T05:14:32;23.00;99.90
31451;DHT22;18070;52.474;13.304;2023-08-20T05:16:58;23.00;99.90
31451;DHT22;18070;52.474;13.304;2023-08-20T05:19:23;23.00;99.90
31451;DHT22;18070;52.474;13.304;2023-08-20T05:21:49;23.10;99.90
31451;DHT22;18070;52.474;13.304;2023-08-20T05:24:14;23.10;99.90
31451;DHT22;18070;52.474;13.304;2023-08-20T05:26:40;23.20;99.90
31451;DHT22;18070;52.474;13.304;2023-08-20T05:29:06;23.20;99.90
31451;DHT22;18070;52.474;13.304;2023-08-20T05:31:31;23.30;99.90
31451;DHT22;18070;52.474;13.304;2023-08-20T05:33:57;23.30;99.90
31451;DHT22;18070;52.474;13.304;2023-08-20T05:36:23;23.30;99.90
31451;DHT22;18070;52.474;13.304;2023-08-20T05:38:49;23.30;99.90
31451;DHT22;18070;52.474;13.304;2023-08-20T05:41:15;23.30;99.90
31451;DHT22;18070;52.474;13.304;2023-08-20T05:43:40;23.30;99.90
31451;DHT22;18070;52.474;13.304;2023-08-20T05:46:06;23.30;99.90
31451;DHT22;18070;52.474;13.304;2023-08-20T05:48:31;23.30;99.90
31451;DHT22;18070;52.474;13.304;2023-08-20T05:50:57;23.40;99.90
31451;DHT22;18070;52.474;13.304;2023-08-20T05:53:22;23.40;99.90
31451;DHT22;18070;52.474;13.304;2023-08-20T05:55:48;23.40;99.90
31451;DHT22;18070;52.474;13.304;2023-08-20T05:58:14;23.50;99.90
31451;DHT22;18070;52.474;13.304;2023-08-20T06:00:40;23.60;99.90
31451;DHT22;18070;52.474;13.304;2023-08-20T06:03:05;23.70;99.90
31451;DHT22;18070;52.474;13.304;2023-08-20T06:05:33;23.70;99.90
31451;DHT22;18070;52.474;13.304;2023-08-20T06:07:59;23.80;99.90
31451;DHT22;18070;52.474;13.304;2023-08-20T06:10:24;23.70;99.90
31451;DHT22;18070;52.474;13.304;2023-08-20T06:12:50;23.70;99.90
31451;DHT22;18070;52.474;13.304;2023-08-20T06:15:15;23.70;99.90
31451;DHT22;18070;52.474;13.304;2023-08-20T06:17:41;23.70;99.90
31451;DHT22;18070;52.474;13.304;2023-08-20T06:20:07;23.70;99.90
31451;DHT22;18070;52.474;13.304;2023-08-20T06:22:34;23.70;99.90
31451;DHT22;18070;52.474;13.304;2023-08-20T06:25:00;23.70;99.90
31451;DHT22;18070;52.474;13.304;2023-08-20T06:27:25;23.70;99.90
31451;DHT22;18070;52.474;13.304;2023-08-20T06:29:51;23.60;99.90
31451;DHT22;18070;52.474;13.304;2023-08-20T06:32:17;23.60;99.90
31451;DHT22;18070;52.474;13.304;2023-08-20T06:34:42;23.60;99.90
31451;DHT22;18070;52.474;13.304;2023-08-20T06:37:08;23.70;99.90
31451;DHT22;18070;52.474;13.304;2023-08-20T06:39:34;23.60;99.90
31451;DHT22;18070;52.474;13.304;2023-08-20T06:41:59;23.60;99.90
31451;DHT22;18070;52.474;13.304;2023-08-20T06:44:25;23.60;99.90
31451;DHT22;18070;52.474;13.304;2023-08-20T06:46:51;23.70;99.90
31451;DHT22;18070;52.474;13.304;2023-08-20T06:49:17;23.70;99.90
31451;DHT22;18070;52.474;13.304;2023-08-20T06:51:42;23.80;99.90
31451;DHT22;18070;52.474;13.304;2023-08-20T06:54:08;23.70;99.90
31451;DHT22;18070;52.474;13.304;2023-08-20T06:56:33;23.70;99.90
31451;DHT22;18070;52.474;13.304;2023-08-20T06:59:00;23.70;99.90
31451;DHT22;18070;52.474;13.304;2023-08-20T07:01:26;23.70;99.90
31451;DHT22;18070;52.474;13.304;2023-08-20T07:03:51;23.70;99.90
31451;DHT22;18070;52.474;13.304;2023-08-20T07:06:17;23.60;99.90
31451;DHT22;18070;52.474;13.304;2023-08-20T07:08:44;23.60;99.90
31451;DHT22;18070;52.474;13.304;2023-08-20T07:11:10;23.40;99.90
31451;DHT22;18070;52.474;13.304;2023-08-20T07:13:36;23.40;99.90
31451;DHT22;18070;52.474;13.304;2023-08-20T07:16:01;23.60;99.90
31451;DHT22;18070;52.474;13.304;2023-08-20T07:18:27;23.60;99.90
31451;DHT22;18070;52.474;13.304;2023-08-20T07:20:55;23.70;99.90
31451;DHT22;18070;52.474;13.304;2023-08-20T07:23:21;23.90;99.90
31451;DHT22;18070;52.474;13.304;2023-08-20T07:25:46;24.20;99.90
31451;DHT22;18070;52.474;13.304;2023-08-20T07:28:12;24.20;99.90
31451;DHT22;18070;52.474;13.304;2023-08-20T07:30:38;24.30;99.90
31451;DHT22;18070;52.474;13.304;2023-08-20T07:33:05;24.40;99.90
31451;DHT22;18070;52.474;13.304;2023-08-20T07:35:31;24.50;99.90
31451;DHT22;18070;52.474;13.304;2023-08-20T07:37:57;24.70;99.90
31451;DHT22;18070;52.474;13.304;2023-08-20T07:40:22;24.80;99.90
31451;DHT22;18070;52.474;13.304;2023-08-20T07:42:48;25.10;99.90
31451;DHT22;18070;52.474;13.304;2023-08-20T07:45:15;25.50;99.90
31451;DHT22;18070;52.474;13.304;2023-08-20T07:47:41;25.90;99.90
31451;DHT22;18070;52.474;13.304;2023-08-20T07:50:06;26.30;99.90
31451;DHT22;18070;52.474;13.304;2023-08-20T07:52:33;26.60;99.90
31451;DHT22;18070;52.474;13.304;2023-08-20T07:54:58;27.00;99.90
31451;DHT22;18070;52.474;13.304;2023-08-20T07:57:24;27.40;99.90
31451;DHT22;18070;52.474;13.304;2023-08-20T07:59:50;27.60;99.90
31451;DHT22;18070;52.474;13.304;2023-08-20T08:02:16;27.80;99.90
31451;DHT22;18070;52.474;13.304;2023-08-20T08:04:43;27.90;99.90
31451;DHT22;18070;52.474;13.304;2023-08-20T08:07:11;28.00;99.90
31451;DHT22;18070;52.474;13.304;2023-08-20T08:09:37;28.20;99.90
31451;DHT22;18070;52.474;13.304;2023-08-20T08:12:03;28.50;99.90
31451;DHT22;18070;52.474;13.304;2023-08-20T08:14:29;28.90;99.90
31451;DHT22;18070;52.474;13.304;2023-08-20T08:16:55;29.00;99.90
31451;DHT22;18070;52.474;13.304;2023-08-20T08:19:20;28.80;99.90
31451;DHT22;18070;52.474;13.304;2023-08-20T08:21:46;29.00;99.90
31451;DHT22;18070;52.474;13.304;2023-08-20T08:24:13;29.50;99.90
31451;DHT22;18070;52.474;13.304;2023-08-20T08:26:39;29.80;99.90
31451;DHT22;18070;52.474;13.304;2023-08-20T08:29:06;30.00;99.90
31451;DHT22;18070;52.474;13.304;2023-08-20T08:31:32;30.20;99.90
31451;DHT22;18070;52.474;13.304;2023-08-20T08:33:58;30.30;99.90
31451;DHT22;18070;52.474;13.304;2023-08-20T08:36:24;30.50;99.90
31451;DHT22;18070;52.474;13.304;2023-08-20T08:38:52;30.50;99.90
31451;DHT22;18070;52.474;13.304;2023-08-20T08:41:23;30.70;99.90
31451;DHT22;18070;52.474;13.304;2023-08-20T08:43:50;30.90;99.90
31451;DHT22;18070;52.474;13.304;2023-08-20T08:46:17;31.10;99.90
31451;DHT22;18070;52.474;13.304;2023-08-20T08:48:44;31.50;99.90
31451;DHT22;18070;52.474;13.304;2023-08-20T08:51:12;31.90;99.90
31451;DHT22;18070;52.474;13.304;2023-08-20T08:53:38;32.10;98.70
31451;DHT22;18070;52.474;13.304;2023-08-20T08:56:03;32.50;99.40
31451;DHT22;18070;52.474;13.304;2023-08-20T08:58:31;32.60;98.50
31451;DHT22;18070;52.474;13.304;2023-08-20T09:00:57;32.90;97.10
31451;DHT22;18070;52.474;13.304;2023-08-20T09:03:23;33.00;96.20
31451;DHT22;18070;52.474;13.304;2023-08-20T09:05:54;33.10;94.90
31451;DHT22;18070;52.474;13.304;2023-08-20T09:08:20;33.10;95.80
31451;DHT22;18070;52.474;13.304;2023-08-20T09:10:49;33.10;94.10
31451;DHT22;18070;52.474;13.304;2023-08-20T09:13:15;32.80;94.70
31451;DHT22;18070;52.474;13.304;2023-08-20T09:15:41;32.90;95.20
31451;DHT22;18070;52.474;13.304;2023-08-20T09:18:09;32.60;94.00
31451;DHT22;18070;52.474;13.304;2023-08-20T09:20:38;32.40;94.80
31451;DHT22;18070;52.474;13.304;2023-08-20T09:23:13;32.00;94.30
31451;DHT22;18070;52.474;13.304;2023-08-20T09:25:39;31.60;95.30
31451;DHT22;18070;52.474;13.304;2023-08-20T09:28:05;31.80;96.30
31451;DHT22;18070;52.474;13.304;2023-08-20T09:30:31;32.00;95.00
31451;DHT22;18070;52.474;13.304;2023-08-20T09:33:10;32.30;93.90
31451;DHT22;18070;52.474;13.304;2023-08-20T09:35:36;32.20;93.80
31451;DHT22;18070;52.474;13.304;2023-08-20T09:38:03;32.60;93.30
31451;DHT22;18070;52.474;13.304;2023-08-20T09:40:30;33.00;92.30
31451;DHT22;18070;52.474;13.304;2023-08-20T09:42:56;33.10;92.30
31451;DHT22;18070;52.474;13.304;2023-08-20T09:45:24;33.50;92.30
31451;DHT22;18070;52.474;13.304;2023-08-20T09:47:54;33.60;90.80
31451;DHT22;18070;52.474;13.304;2023-08-20T09:50:22;33.80;91.50
31451;DHT22;18070;52.474;13.304;2023-08-20T09:53:00;34.20;91.00
31451;DHT22;18070;52.474;13.304;2023-08-20T09:55:33;34.20;90.00
31451;DHT22;18070;52.474;13.304;2023-08-20T09:58:01;34.30;89.40
31451;DHT22;18070;52.474;13.304;2023-08-20T10:00:28;34.50;88.60
31451;DHT22;18070;52.474;13.304;2023-08-20T10:02:54;34.40;89.40
31451;DHT22;18070;52.474;13.304;2023-08-20T10:05:20;34.50;88.20
31451;DHT22;18070;52.474;13.304;2023-08-20T10:07:49;34.50;87.30
31451;DHT22;18070;52.474;13.304;2023-08-20T10:10:15;34.60;87.20
31451;DHT22;18070;52.474;13.304;2023-08-20T10:12:42;34.50;88.00
31451;DHT22;18070;52.474;13.304;2023-08-20T10:15:11;34.20;88.30
31451;DHT22;18070;52.474;13.304;2023-08-20T10:17:39;34.30;88.50
31451;DHT22;18070;52.474;13.304;2023-08-20T10:20:06;34.50;87.00
31451;DHT22;18070;52.474;13.304;2023-08-20T10:22:39;34.80;86.80
31451;DHT22;18070;52.474;13.304;2023-08-20T10:25:09;35.30;85.00
31451;DHT22;18070;52.474;13.304;2023-08-20T10:27:37;35.60;85.60
31451;DHT22;18070;52.474;13.304;2023-08-20T10:30:24;35.70;82.40
31451;DHT22;18070;52.474;13.304;2023-08-20T10:32:52;35.80;82.40
31451;DHT22;18070;52.474;13.304;2023-08-20T10:35:46;36.00;81.20
31451;DHT22;18070;52.474;13.304;2023-08-20T10:38:13;36.20;79.50
31451;DHT22;18070;52.474;13.304;2023-08-20T10:40:55;36.00;77.50
31451;DHT22;18070;52.474;13.304;2023-08-20T10:48:41;36.10;79.10
31451;DHT22;18070;52.474;13.304;2023-08-20T10:51:14;36.10;78.70
31451;DHT22;18070;52.474;13.304;2023-08-20T10:53:42;36.30;77.40
31451;DHT22;18070;52.474;13.304;2023-08-20T10:58:40;36.40;77.50
31451;DHT22;18070;52.474;13.304;2023-08-20T11:01:17;36.50;77.60
31451;DHT22;18070;52.474;13.304;2023-08-20T11:03:49;36.40;78.10
31451;DHT22;18070;52.474;13.304;2023-08-20T11:06:16;35.80;78.10
31451;DHT22;18070;52.474;13.304;2023-08-20T11:08:42;35.50;79.00
31451;DHT22;18070;52.474;13.304;2023-08-20T11:11:08;35.20;80.40
31451;DHT22;18070;52.474;13.304;2023-08-20T11:13:35;35.40;79.90
31451;DHT22;18070;52.474;13.304;2023-08-20T11:16:05;35.70;78.20
31451;DHT22;18070;52.474;13.304;2023-08-20T11:18:34;36.10;78.50
31451;DHT22;18070;52.474;13.304;2023-08-20T11:21:00;36.30;78.10
31451;DHT22;18070;52.474;13.304;2023-08-20T11:23:27;36.40;77.90
31451;DHT22;18070;52.474;13.304;2023-08-20T11:25:53;36.80;75.90
31451;DHT22;18070;52.474;13.304;2023-08-20T11:28:18;36.90;75.30
31451;DHT22;18070;52.474;13.304;2023-08-20T11:30:45;36.80;75.30
31451;DHT22;18070;52.474;13.304;2023-08-20T11:33:11;36.80;73.70
31451;DHT22;18070;52.474;13.304;2023-08-20T11:35:37;36.70;72.20
31451;DHT22;18070;52.474;13.304;2023-08-20T11:38:03;36.60;72.20
31451;DHT22;18070;52.474;13.304;2023-08-20T11:40:29;36.50;73.30
31451;DHT22;18070;52.474;13.304;2023-08-20T11:42:55;36.70;72.00
31451;DHT22;18070;52.474;13.304;2023-08-20T11:45:21;36.70;73.10
31451;DHT22;18070;52.474;13.304;2023-08-20T11:47:46;36.60;73.30
31451;DHT22;18070;52.474;13.304;2023-08-20T11:50:12;36.60;72.60
31451;DHT22;18070;52.474;13.304;2023-08-20T11:52:38;36.60;72.50
31451;DHT22;18070;52.474;13.304;2023-08-20T11:55:08;36.80;71.70
31451;DHT22;18070;52.474;13.304;2023-08-20T11:57:34;36.90;72.60
31451;DHT22;18070;52.474;13.304;2023-08-20T12:00:04;36.50;73.30
31451;DHT22;18070;52.474;13.304;2023-08-20T12:02:32;36.40;70.90
31451;DHT22;18070;52.474;13.304;2023-08-20T12:04:58;35.90;73.60
31451;DHT22;18070;52.474;13.304;2023-08-20T12:07:28;35.40;75.60
31451;DHT22;18070;52.474;13.304;2023-08-20T12:09:54;35.00;74.50
31451;DHT22;18070;52.474;13.304;2023-08-20T12:12:20;34.50;76.90
31451;DHT22;18070;52.474;13.304;2023-08-20T12:14:47;34.10;77.90
31451;DHT22;18070;52.474;13.304;2023-08-20T12:17:12;33.70;76.60
31451;DHT22;18070;52.474;13.304;2023-08-20T12:19:41;33.40;78.10
31451;DHT22;18070;52.474;13.304;2023-08-20T12:22:07;33.30;78.90
31451;DHT22;18070;52.474;13.304;2023-08-20T12:24:34;33.30;76.50
31451;DHT22;18070;52.474;13.304;2023-08-20T12:26:59;33.30;77.60
31451;DHT22;18070;52.474;13.304;2023-08-20T12:29:25;33.20;76.50
31451;DHT22;18070;52.474;13.304;2023-08-20T12:31:51;32.90;77.60
31451;DHT22;18070;52.474;13.304;2023-08-20T12:34:17;32.50;77.80
31451;DHT22;18070;52.474;13.304;2023-08-20T12:36:42;32.20;81.00
31451;DHT22;18070;52.474;13.304;2023-08-20T12:39:08;32.10;80.70
31451;DHT22;18070;52.474;13.304;2023-08-20T12:41:33;32.10;79.30
31451;DHT22;18070;52.474;13.304;2023-08-20T12:44:01;32.00;79.30
31451;DHT22;18070;52.474;13.304;2023-08-20T12:46:27;31.80;77.40
31451;DHT22;18070;52.474;13.304;2023-08-20T12:48:52;31.80;77.50
31451;DHT22;18070;52.474;13.304;2023-08-20T12:51:18;31.90;74.20
31451;DHT22;18070;52.474;13.304;2023-08-20T12:53:44;31.90;73.30
31451;DHT22;18070;52.474;13.304;2023-08-20T12:56:10;32.00;72.00
31451;DHT22;18070;52.474;13.304;2023-08-20T12:58:35;32.10;72.30
31451;DHT22;18070;52.474;13.304;2023-08-20T13:01:01;32.20;71.60
31451;DHT22;18070;52.474;13.304;2023-08-20T13:03:27;32.20;70.60
31451;DHT22;18070;52.474;13.304;2023-08-20T13:05:54;32.30;69.30
31451;DHT22;18070;52.474;13.304;2023-08-20T13:08:20;32.40;69.40
31451;DHT22;18070;52.474;13.304;2023-08-20T13:10:53;32.20;71.30
31451;DHT22;18070;52.474;13.304;2023-08-20T13:13:21;32.10;71.30
31451;DHT22;18070;52.474;13.304;2023-08-20T13:15:48;31.80;73.70
31451;DHT22;18070;52.474;13.304;2023-08-20T13:18:14;32.00;76.50
31451;DHT22;18070;52.474;13.304;2023-08-20T13:20:40;32.10;71.90
31451;DHT22;18070;52.474;13.304;2023-08-20T13:23:07;32.10;71.20
31451;DHT22;18070;52.474;13.304;2023-08-20T13:25:33;32.40;70.40
31451;DHT22;18070;52.474;13.304;2023-08-20T13:27:58;32.50;71.20
31451;DHT22;18070;52.474;13.304;2023-08-20T13:30:24;32.50;71.30
31451;DHT22;18070;52.474;13.304;2023-08-20T13:32:49;32.60;72.10
31451;DHT22;18070;52.474;13.304;2023-08-20T13:35:15;32.50;72.30
31451;DHT22;18070;52.474;13.304;2023-08-20T13:37:41;32.20;73.90
31451;DHT22;18070;52.474;13.304;2023-08-20T13:40:07;32.00;74.50
31451;DHT22;18070;52.474;13.304;2023-08-20T13:42:35;31.70;76.30
31451;DHT22;18070;52.474;13.304;2023-08-20T13:45:00;31.50;75.00
31451;DHT22;18070;52.474;13.304;2023-08-20T13:47:27;31.30;76.90
31451;DHT22;18070;52.474;13.304;2023-08-20T13:49:53;31.10;75.50
31451;DHT22;18070;52.474;13.304;2023-08-20T13:52:18;31.00;75.60
31451;DHT22;18070;52.474;13.304;2023-08-20T13:54:44;31.00;77.20
31451;DHT22;18070;52.474;13.304;2023-08-20T13:57:09;31.00;77.20
31451;DHT22;18070;52.474;13.304;2023-08-20T13:59:35;31.20;79.90
31451;DHT22;18070;52.474;13.304;2023-08-20T14:02:01;31.20;76.50
31451;DHT22;18070;52.474;13.304;2023-08-20T14:04:26;30.90;77.70
31451;DHT22;18070;52.474;13.304;2023-08-20T14:06:52;30.80;80.60
31451;DHT22;18070;52.474;13.304;2023-08-20T14:09:18;30.80;78.00
31451;DHT22;18070;52.474;13.304;2023-08-20T14:11:45;30.60;76.60
31451;DHT22;18070;52.474;13.304;2023-08-20T14:14:10;30.50;76.70
31451;DHT22;18070;52.474;13.304;2023-08-20T14:16:36;30.50;76.80
31451;DHT22;18070;52.474;13.304;2023-08-20T14:19:02;30.30;79.20
31451;DHT22;18070;52.474;13.304;2023-08-20T14:21:27;30.20;74.80
31451;DHT22;18070;52.474;13.304;2023-08-20T14:23:53;30.10;76.00
31451;DHT22;18070;52.474;13.304;2023-08-20T14:26:19;30.10;74.10
31451;DHT22;18070;52.474;13.304;2023-08-20T14:28:44;30.10;75.40
31451;DHT22;18070;52.474;13.304;2023-08-20T14:31:10;30.10;75.10
31451;DHT22;18070;52.474;13.304;2023-08-20T14:33:36;30.00;77.20
31451;DHT22;18070;52.474;13.304;2023-08-20T14:36:02;30.10;75.50
31451;DHT22;18070;52.474;13.304;2023-08-20T14:38:29;30.10;73.50
31451;DHT22;18070;52.474;13.304;2023-08-20T14:41:02;30.00;74.00
31451;DHT22;18070;52.474;13.304;2023-08-20T14:43:28;30.00;77.00
31451;DHT22;18070;52.474;13.304;2023-08-20T14:45:54;29.90;76.60
31451;DHT22;18070;52.474;13.304;2023-08-20T14:48:21;29.90;76.30
31451;DHT22;18070;52.474;13.304;2023-08-20T14:50:47;29.80;79.40
31451;DHT22;18070;52.474;13.304;2023-08-20T14:53:13;29.80;79.80
31451;DHT22;18070;52.474;13.304;2023-08-20T14:55:39;29.80;79.50
31451;DHT22;18070;52.474;13.304;2023-08-20T14:58:05;29.70;79.40
31451;DHT22;18070;52.474;13.304;2023-08-20T15:00:33;29.80;77.90
31451;DHT22;18070;52.474;13.304;2023-08-20T15:02:59;29.80;78.40
31451;DHT22;18070;52.474;13.304;2023-08-20T15:05:26;29.80;78.80
31451;DHT22;18070;52.474;13.304;2023-08-20T15:07:51;29.80;77.70
31451;DHT22;18070;52.474;13.304;2023-08-20T15:10:17;29.70;78.70
31451;DHT22;18070;52.474;13.304;2023-08-20T15:12:43;29.80;80.80
31451;DHT22;18070;52.474;13.304;2023-08-20T15:15:09;30.10;76.60
31451;DHT22;18070;52.474;13.304;2023-08-20T15:17:35;30.30;76.40
31451;DHT22;18070;52.474;13.304;2023-08-20T15:20:02;30.50;73.10
31451;DHT22;18070;52.474;13.304;2023-08-20T15:22:31;30.60;74.80
31451;DHT22;18070;52.474;13.304;2023-08-20T15:24:56;30.60;75.60
31451;DHT22;18070;52.474;13.304;2023-08-20T15:27:23;30.60;75.00